x

Central Aleutians 230nm Sw Dutch Harbor (46072) Wave Buoy

11:50 - Mon 5th Dec 2016 All times are UTC.

  • Sig Wave height 15.1ft
  • Swell Direction
  • Peak Period 15s
  • Average Period 9s
  • Wind
    16mph, 20mph gusts
  • Sea Temp 44°f
  • Air Temp 42°f
  • Sea Pressure 1022.8mb

More Historic Weather Station data

Upgrade to MSW Pro to gain access to the past 30 days of data for over 8000 Wavebouys and Weather Stations around the globe.

Join Pro

Comparision Forecast

View Surf forecast
   
lun. 12/05 11:50 15ft 15s 9s 16 20 mph 1022.8mb 44f 42f
10:50 14ft 15s 9s 22 27 mph 1022.1mb 44f 42f
9:50 13ft 15s 9s 18 22 mph 1021.6mb 44f 41f
8:50 13.5ft 13s 9s 18 22 mph 1020.8mb 44f 42f
7:50 13ft 11s 9s 25 31 mph 1019.6mb 44f 42f
6:50 14.5ft 12s 9s 22 27 mph 1018.7mb 45f 42f
5:50 14.5ft 11s 9s 22 29 mph 1018.1mb 45f 41f
4:50 14.5ft 12s 9s 20 29 mph 1017.5mb 45f 41f
3:50 14ft 12s 9s 20 25 mph 1017.1mb 44f 41f
2:50 16ft 12s 9s 20 25 mph 1016.5mb 44f 41f
1:50 16ft 12s 9s 20 27 mph 1016.1mb 44f 41f
12:50 15.5ft 12s 9s 18 22 mph 1016mb 44f 40f
dim. 12/04 11:50 16ft 12s 9s 22 29 mph 1015.7mb 44f 42f
10:50 17ft 12s 9s 20 27 mph 1015.9mb 44f 42f
9:50 17.5ft 14s 9s 18 27 mph 1016mb 44f 41f
8:50 16.5ft 13s 9s 20 27 mph 1015.7mb 44f 41f
7:50 17.5ft 12s 9s 22 29 mph 1015.4mb 44f 40f
6:50 16.5ft 13s 9s 22 34 mph 1014.6mb 44f 41f
4:50 16ft 11s 9s 22 27 mph 1013mb 44f 42f
3:50 18.5ft 12s 9s 20 27 mph 1012.8mb 44f 42f
2:50 19ft 14s 9s 22 29 mph 1012.5mb 44f 41f
1:50 22ft 13s 9s 29 38 mph 1011.8mb 44f 43f
12:50 23.5ft 12s 9s 38 47 mph 1011.5mb 44f 42f
11:50 25.5ft 13s 9s 40 51 mph 1011.8mb 44f 42f
10:50 22ft 12s 9s 40 54 mph 1012.6mb 44f 42f
9:50 26ft 12s 10s 38 47 mph 1013.5mb 44f 41f
8:50 24ft 13s 10s 38 49 mph 1014.4mb 44f 41f
7:50 26ft 14s 10s 38 49 mph 1014.9mb 44f 42f
6:50 21.5ft 12s 10s 38 49 mph 1015.7mb 44f 42f
5:50 20ft 11s 9s 38 49 mph 1016.7mb 44f 41f
4:50 16.5ft 11s 8s 34 43 mph 1017.9mb 44f 41f
3:50 17ft 10s 8s 36 45 mph 1018.4mb 44f 41f
2:50 16.5ft 10s 8s 36 47 mph 1019.1mb 44f 41f
1:50 17ft 9s 8s 38 49 mph 1019.5mb 44f 41f
12:50 15.5ft 8s 7s 38 47 mph 1020.3mb 44f 42f
sam. 12/03 11:50 14.5ft 8s 7s 38 49 mph 1021.2mb 44f 42f
10:50 13ft 8s 7s 36 45 mph 1022.6mb 44f 42f
9:50 11.5ft 8s 7s 34 40 mph 1023.7mb 44f 42f
8:50 10ft 8s 6s 34 40 mph 1024.2mb 44f 42f
7:50 9.5ft 8s 6s 31 40 mph 1024.8mb 44f 41f
6:50 8ft 7s 6s 29 38 mph 1025.4mb 44f 41f
5:50 8ft 7s 7s 27 36 mph 1025.9mb 43f 42f
4:50 9ft 11s 7s 27 31 mph 1026.5mb 43f 41f
3:50 9ft 13s 7s 25 29 mph 1026.7mb 44f 41f
2:50 8.5ft 12s 7s 22 31 mph 1027.4mb 44f 41f
1:50 9ft 12s 8s 20 25 mph 1028.2mb 44f 40f
12:50 9.5ft 13s 8s 20 25 mph 1028.8mb 44f 40f
11:50 10ft 13s 7s 20 25 mph 1029.2mb 44f 40f
10:50 11ft 14s 9s 18 25 mph 1029.4mb 45f 41f
9:50 11.5ft 13s 9s 13 18 mph 1029.9mb 45f 40f
8:50 10ft 15s 8s 18 25 mph 1029.8mb 45f 38f
7:50 8.5ft 11s 8s 16 18 mph 1029.8mb 45f 40f
6:50 7.5ft 10s 7s 11 16 mph 1029.7mb 45f 39f
5:50 9ft 11s 7s 16 22 mph 1029.6mb 44f 39f
4:50 8ft 11s 7s 18 22 mph 1029.4mb 44f 39f
3:50 8ft 8s 7s 18 22 mph 1029.1mb 44f 38f
2:50 9.5ft 9s 7s 22 27 mph 1028.4mb 44f 38f
1:50 9ft 8s 6s 20 25 mph 1027.8mb 44f 38f
12:50 10ft 8s 6s 25 31 mph 1027.9mb 44f 38f
ven. 12/02 11:50 9ft 8s 6s 25 34 mph 1027.8mb 44f 38f
10:50 9.5ft 8s 6s 22 29 mph 1027.4mb 44f 38f
9:50 9.5ft 8s 7s 25 31 mph 1027mb 44f 38f
8:50 10.5ft 8s 7s 22 27 mph 1026.9mb 44f 38f
7:50 9.5ft 8s 7s 25 34 mph 1026.8mb 44f 38f
6:50 8.5ft 8s 7s 27 31 mph 1026.1mb 44f 38f
5:50 9ft 7s 7s 25 31 mph - 44f 36f
3:50  -   -   -  20 25 mph 1025.7mb 44f 36f
2:50 7.5ft 10s 7s 27 34 mph 1025.3mb 44f 39f
1:50 7.5ft 11s 7s 27 34 mph 1025.9mb 44f 39f
12:50 7.5ft 11s 7s 20 25 mph 1026.3mb 44f 39f
11:50 8ft 11s 7s 16 20 mph 1026.6mb 45f 38f
10:50 9ft 10s 7s 11 13 mph 1027.1mb 45f 37f
9:50 9ft 11s 7s 11 16 mph 1026.9mb 45f 37f
8:50 10ft 10s 8s 13 18 mph 1026.9mb 45f 37f
7:50 10ft 11s 7s 18 20 mph 1026.3mb 45f 36f
6:50 10ft 11s 7s 18 25 mph 1025.4mb 45f 37f
5:50 11ft 11s 8s 20 25 mph 1024.4mb 45f 37f
4:50 10ft 11s 8s 20 25 mph 1023.6mb 45f 36f
3:50 10ft 11s 8s 20 34 mph 1022.5mb 45f 35f
2:50 11ft 11s 8s 25 29 mph 1021.1mb 45f 36f
1:50 11ft 11s 7s 27 34 mph 1020mb 45f 35f
12:50 12ft 11s 7s 20 27 mph 1019.5mb 45f 35f
jeu. 12/01 11:50 13.5ft 11s 8s 18 22 mph 1018.7mb 45f 35f
10:50 13ft 11s 8s 20 25 mph 1017.8mb 45f 36f
9:50 14ft 11s 8s 22 29 mph 1016.9mb 45f 36f
8:50 13.5ft 11s 8s 27 34 mph 1015.3mb 45f 36f
7:50 13.5ft 11s 8s 27 34 mph 1013.7mb 45f 35f
6:50 14ft 11s 8s 31 38 mph 1011.8mb 45f 35f
4:50 14ft 12s 8s 31 40 mph 1008.2mb 45f 34f
3:50 15ft 12s 8s 31 38 mph 1006.4mb 45f 35f
2:50 14ft 14s 8s 34 43 mph 1004.7mb 45f 35f
1:50 14.5ft 12s 8s 34 43 mph 1003.7mb 45f 34f
12:50 16.5ft 14s 8s 36 47 mph 1002.2mb 45f 34f